sensor_id;sensor_type;location;lat;lon;timestamp;P1;durP1;ratioP1;P2;durP2;ratioP2
21258;SDS011;10787;53.364;-1.480;2024-03-06T00:02:24;26.37;;;16.10;;
21258;SDS011;10787;53.364;-1.480;2024-03-06T00:05:08;24.37;;;15.20;;
21258;SDS011;10787;53.364;-1.480;2024-03-06T00:07:53;24.37;;;15.73;;
21258;SDS011;10787;53.364;-1.480;2024-03-06T00:10:37;26.80;;;14.50;;
21258;SDS011;10787;53.364;-1.480;2024-03-06T00:13:21;22.73;;;14.20;;
21258;SDS011;10787;53.364;-1.480;2024-03-06T00:16:05;27.07;;;14.70;;
21258;SDS011;10787;53.364;-1.480;2024-03-06T00:18:50;21.93;;;13.30;;
21258;SDS011;10787;53.364;-1.480;2024-03-06T00:21:34;21.70;;;13.37;;
21258;SDS011;10787;53.364;-1.480;2024-03-06T00:24:20;27.80;;;14.37;;
21258;SDS011;10787;53.364;-1.480;2024-03-06T00:27:04;26.97;;;14.80;;
21258;SDS011;10787;53.364;-1.480;2024-03-06T00:29:49;24.13;;;14.50;;
21258;SDS011;10787;53.364;-1.480;2024-03-06T00:32:33;24.73;;;14.10;;
21258;SDS011;10787;53.364;-1.480;2024-03-06T00:35:18;24.77;;;14.40;;
21258;SDS011;10787;53.364;-1.480;2024-03-06T00:38:03;24.17;;;14.57;;
21258;SDS011;10787;53.364;-1.480;2024-03-06T00:40:47;24.73;;;14.77;;
21258;SDS011;10787;53.364;-1.480;2024-03-06T00:43:32;22.70;;;14.03;;
21258;SDS011;10787;53.364;-1.480;2024-03-06T00:46:16;25.30;;;15.13;;
21258;SDS011;10787;53.364;-1.480;2024-03-06T00:49:00;25.67;;;14.80;;
21258;SDS011;10787;53.364;-1.480;2024-03-06T00:51:44;24.87;;;14.67;;
21258;SDS011;10787;53.364;-1.480;2024-03-06T00:54:29;25.83;;;15.30;;
21258;SDS011;10787;53.364;-1.480;2024-03-06T00:57:13;26.17;;;15.00;;
21258;SDS011;10787;53.364;-1.480;2024-03-06T00:59:57;26.10;;;14.63;;
21258;SDS011;10787;53.364;-1.480;2024-03-06T01:02:42;23.20;;;14.70;;
21258;SDS011;10787;53.364;-1.480;2024-03-06T01:05:26;25.30;;;15.30;;
21258;SDS011;10787;53.364;-1.480;2024-03-06T01:08:11;24.30;;;15.00;;
21258;SDS011;10787;53.364;-1.480;2024-03-06T01:10:55;23.00;;;14.90;;
21258;SDS011;10787;53.364;-1.480;2024-03-06T01:13:40;44.03;;;20.87;;
21258;SDS011;10787;53.364;-1.480;2024-03-06T01:16:24;32.60;;;17.80;;
21258;SDS011;10787;53.364;-1.480;2024-03-06T01:19:08;27.97;;;15.73;;
21258;SDS011;10787;53.364;-1.480;2024-03-06T01:21:52;25.87;;;15.47;;
21258;SDS011;10787;53.364;-1.480;2024-03-06T01:24:36;27.30;;;15.47;;
21258;SDS011;10787;53.364;-1.480;2024-03-06T01:27:21;27.43;;;15.30;;
21258;SDS011;10787;53.364;-1.480;2024-03-06T01:30:05;25.13;;;15.37;;
21258;SDS011;10787;53.364;-1.480;2024-03-06T01:32:49;25.67;;;14.90;;
21258;SDS011;10787;53.364;-1.480;2024-03-06T01:35:33;24.67;;;15.03;;
21258;SDS011;10787;53.364;-1.480;2024-03-06T01:38:17;26.63;;;15.77;;
21258;SDS011;10787;53.364;-1.480;2024-03-06T01:41:01;25.50;;;15.80;;
21258;SDS011;10787;53.364;-1.480;2024-03-06T01:43:48;25.87;;;15.77;;
21258;SDS011;10787;53.364;-1.480;2024-03-06T01:46:32;29.10;;;16.33;;
21258;SDS011;10787;53.364;-1.480;2024-03-06T01:49:16;26.43;;;15.70;;
21258;SDS011;10787;53.364;-1.480;2024-03-06T01:52:01;26.30;;;15.73;;
21258;SDS011;10787;53.364;-1.480;2024-03-06T01:54:46;27.87;;;15.63;;
21258;SDS011;10787;53.364;-1.480;2024-03-06T01:57:33;26.93;;;15.70;;
21258;SDS011;10787;53.364;-1.480;2024-03-06T02:00:18;26.50;;;15.70;;
21258;SDS011;10787;53.364;-1.480;2024-03-06T02:03:02;24.63;;;14.93;;
21258;SDS011;10787;53.364;-1.480;2024-03-06T02:05:50;28.60;;;16.17;;
21258;SDS011;10787;53.364;-1.480;2024-03-06T02:08:36;29.20;;;16.43;;
21258;SDS011;10787;53.364;-1.480;2024-03-06T02:11:21;27.47;;;15.13;;
21258;SDS011;10787;53.364;-1.480;2024-03-06T02:14:05;29.10;;;16.27;;
21258;SDS011;10787;53.364;-1.480;2024-03-06T02:16:53;27.27;;;16.10;;
21258;SDS011;10787;53.364;-1.480;2024-03-06T02:19:37;27.37;;;15.30;;
21258;SDS011;10787;53.364;-1.480;2024-03-06T02:22:25;27.30;;;15.73;;
21258;SDS011;10787;53.364;-1.480;2024-03-06T02:25:10;28.83;;;15.60;;
21258;SDS011;10787;53.364;-1.480;2024-03-06T02:27:55;26.43;;;15.53;;
21258;SDS011;10787;53.364;-1.480;2024-03-06T02:30:39;26.07;;;15.53;;
21258;SDS011;10787;53.364;-1.480;2024-03-06T02:33:24;28.13;;;16.23;;
21258;SDS011;10787;53.364;-1.480;2024-03-06T02:36:08;27.53;;;16.03;;
21258;SDS011;10787;53.364;-1.480;2024-03-06T02:38:52;25.77;;;15.50;;
21258;SDS011;10787;53.364;-1.480;2024-03-06T02:41:36;27.93;;;15.47;;
21258;SDS011;10787;53.364;-1.480;2024-03-06T02:44:20;24.83;;;14.80;;
21258;SDS011;10787;53.364;-1.480;2024-03-06T02:47:04;25.23;;;15.20;;
21258;SDS011;10787;53.364;-1.480;2024-03-06T02:49:48;25.60;;;15.33;;
21258;SDS011;10787;53.364;-1.480;2024-03-06T02:52:32;24.60;;;14.73;;
21258;SDS011;10787;53.364;-1.480;2024-03-06T02:55:17;24.07;;;14.93;;
21258;SDS011;10787;53.364;-1.480;2024-03-06T02:58:02;25.77;;;14.90;;
21258;SDS011;10787;53.364;-1.480;2024-03-06T03:00:46;27.60;;;15.13;;
21258;SDS011;10787;53.364;-1.480;2024-03-06T03:03:31;24.27;;;14.33;;
21258;SDS011;10787;53.364;-1.480;2024-03-06T03:06:15;26.27;;;14.80;;
21258;SDS011;10787;53.364;-1.480;2024-03-06T03:08:59;25.53;;;14.20;;
21258;SDS011;10787;53.364;-1.480;2024-03-06T03:11:43;30.03;;;16.03;;
21258;SDS011;10787;53.364;-1.480;2024-03-06T03:14:28;29.53;;;15.47;;
21258;SDS011;10787;53.364;-1.480;2024-03-06T03:17:12;27.97;;;15.27;;
21258;SDS011;10787;53.364;-1.480;2024-03-06T03:19:58;28.23;;;15.00;;
21258;SDS011;10787;53.364;-1.480;2024-03-06T03:22:43;26.67;;;14.80;;
21258;SDS011;10787;53.364;-1.480;2024-03-06T03:25:27;25.27;;;14.57;;
21258;SDS011;10787;53.364;-1.480;2024-03-06T03:28:11;27.53;;;15.10;;
21258;SDS011;10787;53.364;-1.480;2024-03-06T03:30:56;26.30;;;15.00;;
21258;SDS011;10787;53.364;-1.480;2024-03-06T03:33:41;27.27;;;15.03;;
21258;SDS011;10787;53.364;-1.480;2024-03-06T03:36:25;25.77;;;14.20;;
21258;SDS011;10787;53.364;-1.480;2024-03-06T03:39:10;24.77;;;14.47;;
21258;SDS011;10787;53.364;-1.480;2024-03-06T03:42:01;24.50;;;13.80;;
21258;SDS011;10787;53.364;-1.480;2024-03-06T03:44:45;23.43;;;13.80;;
21258;SDS011;10787;53.364;-1.480;2024-03-06T03:47:30;22.77;;;13.60;;
21258;SDS011;10787;53.364;-1.480;2024-03-06T03:50:14;22.43;;;13.23;;
21258;SDS011;10787;53.364;-1.480;2024-03-06T03:52:58;26.30;;;13.77;;
21258;SDS011;10787;53.364;-1.480;2024-03-06T03:55:44;23.37;;;13.37;;
21258;SDS011;10787;53.364;-1.480;2024-03-06T03:58:28;22.43;;;13.07;;
21258;SDS011;10787;53.364;-1.480;2024-03-06T04:01:12;24.00;;;13.33;;
21258;SDS011;10787;53.364;-1.480;2024-03-06T04:03:57;25.77;;;14.50;;
21258;SDS011;10787;53.364;-1.480;2024-03-06T04:06:42;23.47;;;14.00;;
21258;SDS011;10787;53.364;-1.480;2024-03-06T04:09:26;23.63;;;14.03;;
21258;SDS011;10787;53.364;-1.480;2024-03-06T04:12:10;22.20;;;13.07;;
21258;SDS011;10787;53.364;-1.480;2024-03-06T04:14:54;23.40;;;13.07;;
21258;SDS011;10787;53.364;-1.480;2024-03-06T04:17:38;23.37;;;13.10;;
21258;SDS011;10787;53.364;-1.480;2024-03-06T04:20:24;22.07;;;12.97;;
21258;SDS011;10787;53.364;-1.480;2024-03-06T04:23:08;22.50;;;12.90;;
21258;SDS011;10787;53.364;-1.480;2024-03-06T04:25:53;23.57;;;13.90;;
21258;SDS011;10787;53.364;-1.480;2024-03-06T04:28:37;24.80;;;13.17;;
21258;SDS011;10787;53.364;-1.480;2024-03-06T04:31:21;22.40;;;12.93;;
21258;SDS011;10787;53.364;-1.480;2024-03-06T04:34:06;25.00;;;14.13;;
21258;SDS011;10787;53.364;-1.480;2024-03-06T04:36:50;24.40;;;13.67;;
21258;SDS011;10787;53.364;-1.480;2024-03-06T04:39:34;26.17;;;14.57;;
21258;SDS011;10787;53.364;-1.480;2024-03-06T04:42:18;26.97;;;14.50;;
21258;SDS011;10787;53.364;-1.480;2024-03-06T04:45:03;25.27;;;15.37;;
21258;SDS011;10787;53.364;-1.480;2024-03-06T04:47:48;29.00;;;15.90;;
21258;SDS011;10787;53.364;-1.480;2024-03-06T04:50:33;26.97;;;15.77;;
21258;SDS011;10787;53.364;-1.480;2024-03-06T04:53:17;25.90;;;14.43;;
21258;SDS011;10787;53.364;-1.480;2024-03-06T04:56:03;25.97;;;14.50;;
21258;SDS011;10787;53.364;-1.480;2024-03-06T04:58:48;22.43;;;14.10;;
21258;SDS011;10787;53.364;-1.480;2024-03-06T05:01:33;21.73;;;12.43;;
21258;SDS011;10787;53.364;-1.480;2024-03-06T05:04:17;20.40;;;12.67;;
21258;SDS011;10787;53.364;-1.480;2024-03-06T05:07:02;22.60;;;12.20;;
21258;SDS011;10787;53.364;-1.480;2024-03-06T05:09:46;20.53;;;12.20;;
21258;SDS011;10787;53.364;-1.480;2024-03-06T05:12:30;21.97;;;11.93;;
21258;SDS011;10787;53.364;-1.480;2024-03-06T05:15:14;20.63;;;11.60;;
21258;SDS011;10787;53.364;-1.480;2024-03-06T05:17:59;21.57;;;12.03;;
21258;SDS011;10787;53.364;-1.480;2024-03-06T05:20:44;20.97;;;12.07;;
21258;SDS011;10787;53.364;-1.480;2024-03-06T05:23:29;21.40;;;11.80;;
21258;SDS011;10787;53.364;-1.480;2024-03-06T05:26:13;19.30;;;11.53;;
21258;SDS011;10787;53.364;-1.480;2024-03-06T05:28:58;20.90;;;11.43;;
21258;SDS011;10787;53.364;-1.480;2024-03-06T05:31:42;20.80;;;12.33;;
21258;SDS011;10787;53.364;-1.480;2024-03-06T05:34:27;23.57;;;13.57;;
21258;SDS011;10787;53.364;-1.480;2024-03-06T05:37:10;24.97;;;14.30;;
21258;SDS011;10787;53.364;-1.480;2024-03-06T05:39:55;25.77;;;14.17;;
21258;SDS011;10787;53.364;-1.480;2024-03-06T05:42:38;25.73;;;14.80;;
21258;SDS011;10787;53.364;-1.480;2024-03-06T05:45:23;23.63;;;14.03;;
21258;SDS011;10787;53.364;-1.480;2024-03-06T05:48:07;23.70;;;13.90;;
21258;SDS011;10787;53.364;-1.480;2024-03-06T05:50:52;24.10;;;13.97;;
21258;SDS011;10787;53.364;-1.480;2024-03-06T05:53:37;24.27;;;14.37;;
21258;SDS011;10787;53.364;-1.480;2024-03-06T05:56:26;23.50;;;13.93;;
21258;SDS011;10787;53.364;-1.480;2024-03-06T05:59:10;23.33;;;14.03;;
21258;SDS011;10787;53.364;-1.480;2024-03-06T06:01:54;25.93;;;15.43;;
21258;SDS011;10787;53.364;-1.480;2024-03-06T06:04:39;26.83;;;15.43;;
21258;SDS011;10787;53.364;-1.480;2024-03-06T06:07:23;30.90;;;17.70;;
21258;SDS011;10787;53.364;-1.480;2024-03-06T06:10:07;29.90;;;17.17;;
21258;SDS011;10787;53.364;-1.480;2024-03-06T06:12:53;26.97;;;15.87;;
21258;SDS011;10787;53.364;-1.480;2024-03-06T06:15:38;30.37;;;17.27;;
21258;SDS011;10787;53.364;-1.480;2024-03-06T06:18:22;27.67;;;15.53;;
21258;SDS011;10787;53.364;-1.480;2024-03-06T06:21:06;27.63;;;16.50;;
21258;SDS011;10787;53.364;-1.480;2024-03-06T06:23:51;27.80;;;16.17;;
21258;SDS011;10787;53.364;-1.480;2024-03-06T06:26:36;27.53;;;17.40;;
21258;SDS011;10787;53.364;-1.480;2024-03-06T06:29:20;27.63;;;15.73;;
21258;SDS011;10787;53.364;-1.480;2024-03-06T06:32:04;26.27;;;15.67;;
21258;SDS011;10787;53.364;-1.480;2024-03-06T06:34:49;28.57;;;16.70;;
21258;SDS011;10787;53.364;-1.480;2024-03-06T06:37:33;32.97;;;16.27;;
21258;SDS011;10787;53.364;-1.480;2024-03-06T06:40:18;24.07;;;14.57;;
21258;SDS011;10787;53.364;-1.480;2024-03-06T06:43:03;23.37;;;13.60;;
21258;SDS011;10787;53.364;-1.480;2024-03-06T06:45:47;24.03;;;12.50;;
21258;SDS011;10787;53.364;-1.480;2024-03-06T06:48:32;21.87;;;12.73;;
21258;SDS011;10787;53.364;-1.480;2024-03-06T06:51:17;22.57;;;13.27;;
21258;SDS011;10787;53.364;-1.480;2024-03-06T06:54:01;22.30;;;13.97;;
21258;SDS011;10787;53.364;-1.480;2024-03-06T06:56:48;22.07;;;13.30;;
21258;SDS011;10787;53.364;-1.480;2024-03-06T06:59:33;24.80;;;12.90;;
21258;SDS011;10787;53.364;-1.480;2024-03-06T07:02:18;24.03;;;13.67;;
21258;SDS011;10787;53.364;-1.480;2024-03-06T07:05:03;23.23;;;13.37;;
21258;SDS011;10787;53.364;-1.480;2024-03-06T07:07:48;23.00;;;13.73;;
21258;SDS011;10787;53.364;-1.480;2024-03-06T07:10:32;25.17;;;14.00;;
21258;SDS011;10787;53.364;-1.480;2024-03-06T07:13:18;30.23;;;14.43;;
21258;SDS011;10787;53.364;-1.480;2024-03-06T07:16:03;27.67;;;15.13;;
21258;SDS011;10787;53.364;-1.480;2024-03-06T07:18:50;31.47;;;15.23;;
21258;SDS011;10787;53.364;-1.480;2024-03-06T07:21:34;28.40;;;15.20;;
21258;SDS011;10787;53.364;-1.480;2024-03-06T07:24:19;35.00;;;17.03;;
21258;SDS011;10787;53.364;-1.480;2024-03-06T07:27:04;30.57;;;16.47;;
21258;SDS011;10787;53.364;-1.480;2024-03-06T07:29:49;31.97;;;16.97;;
21258;SDS011;10787;53.364;-1.480;2024-03-06T07:32:33;31.67;;;17.00;;
21258;SDS011;10787;53.364;-1.480;2024-03-06T07:35:17;32.63;;;17.07;;
21258;SDS011;10787;53.364;-1.480;2024-03-06T07:38:02;32.00;;;16.73;;
21258;SDS011;10787;53.364;-1.480;2024-03-06T07:40:48;35.97;;;17.50;;
21258;SDS011;10787;53.364;-1.480;2024-03-06T07:43:47;31.37;;;17.23;;
21258;SDS011;10787;53.364;-1.480;2024-03-06T07:46:32;32.87;;;17.40;;
21258;SDS011;10787;53.364;-1.480;2024-03-06T07:49:16;35.77;;;17.37;;
21258;SDS011;10787;53.364;-1.480;2024-03-06T07:52:00;36.63;;;18.57;;
21258;SDS011;10787;53.364;-1.480;2024-03-06T07:54:45;40.30;;;19.87;;
21258;SDS011;10787;53.364;-1.480;2024-03-06T07:57:30;45.40;;;20.80;;
21258;SDS011;10787;53.364;-1.480;2024-03-06T08:00:14;53.47;;;22.10;;
21258;SDS011;10787;53.364;-1.480;2024-03-06T08:02:59;56.90;;;24.40;;
21258;SDS011;10787;53.364;-1.480;2024-03-06T08:05:44;58.10;;;24.57;;
21258;SDS011;10787;53.364;-1.480;2024-03-06T08:08:28;72.97;;;27.97;;
21258;SDS011;10787;53.364;-1.480;2024-03-06T08:11:15;75.90;;;28.53;;
21258;SDS011;10787;53.364;-1.480;2024-03-06T08:14:00;61.27;;;26.60;;
21258;SDS011;10787;53.364;-1.480;2024-03-06T08:16:45;77.30;;;29.83;;
21258;SDS011;10787;53.364;-1.480;2024-03-06T08:19:29;76.53;;;29.07;;
21258;SDS011;10787;53.364;-1.480;2024-03-06T08:22:13;73.60;;;29.70;;
21258;SDS011;10787;53.364;-1.480;2024-03-06T08:24:57;78.67;;;29.30;;
21258;SDS011;10787;53.364;-1.480;2024-03-06T08:27:42;76.43;;;30.20;;
21258;SDS011;10787;53.364;-1.480;2024-03-06T08:30:26;74.17;;;29.00;;
21258;SDS011;10787;53.364;-1.480;2024-03-06T08:33:11;81.57;;;31.20;;
21258;SDS011;10787;53.364;-1.480;2024-03-06T08:35:55;76.60;;;30.47;;
21258;SDS011;10787;53.364;-1.480;2024-03-06T08:38:41;84.10;;;31.83;;
21258;SDS011;10787;53.364;-1.480;2024-03-06T08:41:25;83.07;;;32.37;;
21258;SDS011;10787;53.364;-1.480;2024-03-06T08:44:10;85.50;;;31.47;;
21258;SDS011;10787;53.364;-1.480;2024-03-06T08:46:54;83.90;;;32.13;;
21258;SDS011;10787;53.364;-1.480;2024-03-06T08:49:39;83.63;;;32.67;;
21258;SDS011;10787;53.364;-1.480;2024-03-06T08:52:23;80.53;;;31.50;;
21258;SDS011;10787;53.364;-1.480;2024-03-06T08:55:08;83.50;;;32.07;;
21258;SDS011;10787;53.364;-1.480;2024-03-06T08:57:53;74.23;;;30.67;;
21258;SDS011;10787;53.364;-1.480;2024-03-06T09:00:37;76.97;;;31.37;;
21258;SDS011;10787;53.364;-1.480;2024-03-06T09:03:22;70.27;;;29.37;;
21258;SDS011;10787;53.364;-1.480;2024-03-06T09:06:06;65.53;;;28.60;;
21258;SDS011;10787;53.364;-1.480;2024-03-06T09:08:51;59.67;;;26.43;;
21258;SDS011;10787;53.364;-1.480;2024-03-06T09:11:35;65.90;;;29.20;;
21258;SDS011;10787;53.364;-1.480;2024-03-06T09:14:19;60.53;;;26.73;;
21258;SDS011;10787;53.364;-1.480;2024-03-06T09:17:04;61.37;;;28.03;;
21258;SDS011;10787;53.364;-1.480;2024-03-06T09:19:49;63.23;;;29.53;;
21258;SDS011;10787;53.364;-1.480;2024-03-06T09:22:33;60.90;;;28.43;;
21258;SDS011;10787;53.364;-1.480;2024-03-06T09:25:18;60.97;;;27.77;;
21258;SDS011;10787;53.364;-1.480;2024-03-06T09:28:03;56.73;;;27.43;;
21258;SDS011;10787;53.364;-1.480;2024-03-06T09:30:48;61.93;;;28.70;;
21258;SDS011;10787;53.364;-1.480;2024-03-06T09:33:33;61.30;;;29.47;;
21258;SDS011;10787;53.364;-1.480;2024-03-06T09:36:17;59.17;;;28.43;;
21258;SDS011;10787;53.364;-1.480;2024-03-06T09:39:01;63.30;;;28.57;;
21258;SDS011;10787;53.364;-1.480;2024-03-06T09:41:51;57.93;;;28.87;;
21258;SDS011;10787;53.364;-1.480;2024-03-06T09:44:37;58.03;;;29.27;;
21258;SDS011;10787;53.364;-1.480;2024-03-06T09:47:22;64.10;;;28.87;;
21258;SDS011;10787;53.364;-1.480;2024-03-06T09:50:09;59.13;;;28.50;;
21258;SDS011;10787;53.364;-1.480;2024-03-06T09:52:54;55.43;;;28.43;;
21258;SDS011;10787;53.364;-1.480;2024-03-06T09:55:40;62.90;;;28.07;;
21258;SDS011;10787;53.364;-1.480;2024-03-06T09:58:26;56.13;;;28.67;;
21258;SDS011;10787;53.364;-1.480;2024-03-06T10:01:10;54.37;;;27.87;;
21258;SDS011;10787;53.364;-1.480;2024-03-06T10:03:57;53.90;;;27.27;;
21258;SDS011;10787;53.364;-1.480;2024-03-06T10:06:42;57.87;;;27.50;;
21258;SDS011;10787;53.364;-1.480;2024-03-06T10:09:28;59.77;;;29.83;;
21258;SDS011;10787;53.364;-1.480;2024-03-06T10:12:17;67.97;;;31.97;;
21258;SDS011;10787;53.364;-1.480;2024-03-06T10:15:02;58.27;;;29.47;;
21258;SDS011;10787;53.364;-1.480;2024-03-06T10:17:47;60.40;;;28.67;;
21258;SDS011;10787;53.364;-1.480;2024-03-06T10:20:32;55.97;;;29.30;;
21258;SDS011;10787;53.364;-1.480;2024-03-06T10:23:18;55.70;;;27.50;;
21258;SDS011;10787;53.364;-1.480;2024-03-06T10:26:03;60.40;;;28.47;;
21258;SDS011;10787;53.364;-1.480;2024-03-06T10:28:52;54.83;;;28.23;;
21258;SDS011;10787;53.364;-1.480;2024-03-06T10:31:36;55.23;;;27.03;;
21258;SDS011;10787;53.364;-1.480;2024-03-06T10:34:21;54.57;;;28.10;;
21258;SDS011;10787;53.364;-1.480;2024-03-06T10:37:08;55.13;;;26.53;;
21258;SDS011;10787;53.364;-1.480;2024-03-06T10:39:53;48.13;;;25.07;;
21258;SDS011;10787;53.364;-1.480;2024-03-06T10:42:42;47.83;;;24.90;;
21258;SDS011;10787;53.364;-1.480;2024-03-06T10:45:50;53.97;;;26.97;;
21258;SDS011;10787;53.364;-1.480;2024-03-06T10:48:34;52.37;;;25.90;;
21258;SDS011;10787;53.364;-1.480;2024-03-06T10:51:20;53.87;;;26.20;;
21258;SDS011;10787;53.364;-1.480;2024-03-06T10:54:06;51.97;;;26.10;;
21258;SDS011;10787;53.364;-1.480;2024-03-06T10:56:52;48.03;;;26.03;;
21258;SDS011;10787;53.364;-1.480;2024-03-06T10:59:37;55.83;;;27.63;;
21258;SDS011;10787;53.364;-1.480;2024-03-06T11:02:22;51.83;;;27.10;;
21258;SDS011;10787;53.364;-1.480;2024-03-06T11:05:07;46.57;;;24.17;;
21258;SDS011;10787;53.364;-1.480;2024-03-06T11:07:52;45.83;;;23.30;;
21258;SDS011;10787;53.364;-1.480;2024-03-06T11:10:37;38.80;;;20.50;;
21258;SDS011;10787;53.364;-1.480;2024-03-06T11:13:23;39.07;;;21.23;;
21258;SDS011;10787;53.364;-1.480;2024-03-06T11:16:09;35.53;;;20.50;;
21258;SDS011;10787;53.364;-1.480;2024-03-06T11:19:04;44.15;;;23.90;;
21258;SDS011;10787;53.364;-1.480;2024-03-06T11:21:52;46.70;;;23.08;;
21258;SDS011;10787;53.364;-1.480;2024-03-06T11:24:36;39.08;;;22.33;;
21258;SDS011;10787;53.364;-1.480;2024-03-06T11:27:21;48.60;;;24.08;;
21258;SDS011;10787;53.364;-1.480;2024-03-06T11:30:07;43.42;;;23.27;;
21258;SDS011;10787;53.364;-1.480;2024-03-06T11:33:00;41.28;;;22.80;;
21258;SDS011;10787;53.364;-1.480;2024-03-06T11:39:09;43.53;;;22.88;;
21258;SDS011;10787;53.364;-1.480;2024-03-06T11:41:53;39.30;;;22.20;;
21258;SDS011;10787;53.364;-1.480;2024-03-06T11:44:51;37.22;;;22.02;;
21258;SDS011;10787;53.364;-1.480;2024-03-06T11:47:55;39.60;;;21.23;;
21258;SDS011;10787;53.364;-1.480;2024-03-06T11:50:43;37.60;;;21.48;;
21258;SDS011;10787;53.364;-1.480;2024-03-06T11:53:32;33.25;;;19.60;;
21258;SDS011;10787;53.364;-1.480;2024-03-06T11:56:18;32.47;;;19.13;;
21258;SDS011;10787;53.364;-1.480;2024-03-06T11:59:04;34.17;;;19.92;;
21258;SDS011;10787;53.364;-1.480;2024-03-06T12:01:54;32.92;;;18.98;;
21258;SDS011;10787;53.364;-1.480;2024-03-06T12:04:40;26.33;;;16.73;;
21258;SDS011;10787;53.364;-1.480;2024-03-06T12:07:25;27.90;;;16.17;;
21258;SDS011;10787;53.364;-1.480;2024-03-06T12:10:09;27.00;;;15.75;;
21258;SDS011;10787;53.364;-1.480;2024-03-06T12:12:53;30.23;;;18.15;;
21258;SDS011;10787;53.364;-1.480;2024-03-06T12:15:37;30.45;;;18.67;;
21258;SDS011;10787;53.364;-1.480;2024-03-06T12:18:21;31.42;;;19.40;;
21258;SDS011;10787;53.364;-1.480;2024-03-06T12:21:07;34.33;;;19.55;;
21258;SDS011;10787;53.364;-1.480;2024-03-06T12:24:07;28.73;;;18.42;;
21258;SDS011;10787;53.364;-1.480;2024-03-06T12:27:00;29.38;;;17.50;;
21258;SDS011;10787;53.364;-1.480;2024-03-06T12:29:46;28.88;;;18.27;;
21258;SDS011;10787;53.364;-1.480;2024-03-06T12:32:36;29.92;;;18.90;;
21258;SDS011;10787;53.364;-1.480;2024-03-06T12:35:26;27.75;;;18.08;;
21258;SDS011;10787;53.364;-1.480;2024-03-06T12:38:14;30.45;;;18.83;;
21258;SDS011;10787;53.364;-1.480;2024-03-06T12:40:59;31.75;;;19.90;;
21258;SDS011;10787;53.364;-1.480;2024-03-06T12:43:43;29.27;;;18.63;;
21258;SDS011;10787;53.364;-1.480;2024-03-06T12:46:28;29.98;;;19.23;;
21258;SDS011;10787;53.364;-1.480;2024-03-06T12:49:14;27.75;;;18.30;;
21258;SDS011;10787;53.364;-1.480;2024-03-06T12:51:58;30.83;;;19.23;;
21258;SDS011;10787;53.364;-1.480;2024-03-06T12:54:43;31.63;;;19.58;;
21258;SDS011;10787;53.364;-1.480;2024-03-06T12:57:27;32.97;;;20.20;;
21258;SDS011;10787;53.364;-1.480;2024-03-06T13:00:12;29.48;;;18.98;;
21258;SDS011;10787;53.364;-1.480;2024-03-06T13:02:59;31.00;;;18.45;;
21258;SDS011;10787;53.364;-1.480;2024-03-06T13:05:43;28.27;;;18.40;;
21258;SDS011;10787;53.364;-1.480;2024-03-06T13:08:33;28.52;;;18.25;;
21258;SDS011;10787;53.364;-1.480;2024-03-06T13:11:17;28.42;;;18.17;;
21258;SDS011;10787;53.364;-1.480;2024-03-06T13:14:02;27.40;;;18.33;;
21258;SDS011;10787;53.364;-1.480;2024-03-06T13:16:46;29.27;;;18.45;;
21258;SDS011;10787;53.364;-1.480;2024-03-06T13:19:30;27.25;;;17.83;;
21258;SDS011;10787;53.364;-1.480;2024-03-06T13:22:14;30.08;;;18.23;;
21258;SDS011;10787;53.364;-1.480;2024-03-06T13:24:58;29.45;;;18.95;;
21258;SDS011;10787;53.364;-1.480;2024-03-06T13:27:42;29.83;;;18.08;;
21258;SDS011;10787;53.364;-1.480;2024-03-06T13:30:27;25.33;;;18.05;;
21258;SDS011;10787;53.364;-1.480;2024-03-06T13:33:12;23.75;;;16.73;;
21258;SDS011;10787;53.364;-1.480;2024-03-06T13:35:56;25.48;;;17.42;;
21258;SDS011;10787;53.364;-1.480;2024-03-06T13:38:40;24.63;;;17.65;;
21258;SDS011;10787;53.364;-1.480;2024-03-06T13:41:24;29.23;;;17.67;;
21258;SDS011;10787;53.364;-1.480;2024-03-06T13:44:08;29.08;;;17.77;;
21258;SDS011;10787;53.364;-1.480;2024-03-06T13:46:53;29.45;;;17.65;;
21258;SDS011;10787;53.364;-1.480;2024-03-06T13:49:38;26.33;;;17.75;;
21258;SDS011;10787;53.364;-1.480;2024-03-06T13:52:23;27.08;;;17.42;;
21258;SDS011;10787;53.364;-1.480;2024-03-06T13:55:09;28.17;;;17.55;;
21258;SDS011;10787;53.364;-1.480;2024-03-06T13:57:53;23.65;;;15.88;;
21258;SDS011;10787;53.364;-1.480;2024-03-06T14:00:38;20.25;;;14.68;;
21258;SDS011;10787;53.364;-1.480;2024-03-06T14:03:22;20.92;;;15.35;;
21258;SDS011;10787;53.364;-1.480;2024-03-06T14:06:06;21.08;;;15.38;;
21258;SDS011;10787;53.364;-1.480;2024-03-06T14:08:52;20.00;;;15.40;;
21258;SDS011;10787;53.364;-1.480;2024-03-06T14:11:38;19.65;;;15.68;;
21258;SDS011;10787;53.364;-1.480;2024-03-06T14:14:23;20.02;;;14.65;;
21258;SDS011;10787;53.364;-1.480;2024-03-06T14:17:07;18.02;;;14.65;;
21258;SDS011;10787;53.364;-1.480;2024-03-06T14:19:52;19.23;;;15.75;;
21258;SDS011;10787;53.364;-1.480;2024-03-06T14:22:36;19.75;;;15.68;;
21258;SDS011;10787;53.364;-1.480;2024-03-06T14:25:20;20.42;;;16.20;;
21258;SDS011;10787;53.364;-1.480;2024-03-06T14:28:04;20.88;;;16.48;;
21258;SDS011;10787;53.364;-1.480;2024-03-06T14:30:48;20.45;;;15.75;;
21258;SDS011;10787;53.364;-1.480;2024-03-06T14:33:33;18.77;;;14.15;;
21258;SDS011;10787;53.364;-1.480;2024-03-06T14:36:17;20.45;;;14.60;;
21258;SDS011;10787;53.364;-1.480;2024-03-06T14:39:02;19.77;;;14.20;;
21258;SDS011;10787;53.364;-1.480;2024-03-06T14:41:46;17.27;;;13.80;;
21258;SDS011;10787;53.364;-1.480;2024-03-06T14:44:31;22.48;;;14.70;;
21258;SDS011;10787;53.364;-1.480;2024-03-06T14:47:15;20.33;;;15.30;;
21258;SDS011;10787;53.364;-1.480;2024-03-06T14:50:00;18.67;;;14.43;;
21258;SDS011;10787;53.364;-1.480;2024-03-06T14:52:43;18.95;;;14.60;;
21258;SDS011;10787;53.364;-1.480;2024-03-06T14:55:28;20.77;;;14.93;;
21258;SDS011;10787;53.364;-1.480;2024-03-06T14:58:12;20.23;;;16.25;;
21258;SDS011;10787;53.364;-1.480;2024-03-06T15:00:56;23.60;;;16.85;;
21258;SDS011;10787;53.364;-1.480;2024-03-06T15:03:40;26.02;;;18.05;;
21258;SDS011;10787;53.364;-1.480;2024-03-06T15:06:25;26.45;;;17.50;;
21258;SDS011;10787;53.364;-1.480;2024-03-06T15:09:10;25.13;;;17.88;;
21258;SDS011;10787;53.364;-1.480;2024-03-06T15:11:55;26.27;;;18.42;;
21258;SDS011;10787;53.364;-1.480;2024-03-06T15:14:40;26.05;;;17.88;;
21258;SDS011;10787;53.364;-1.480;2024-03-06T15:17:25;28.17;;;17.75;;
21258;SDS011;10787;53.364;-1.480;2024-03-06T15:20:09;30.70;;;21.20;;
21258;SDS011;10787;53.364;-1.480;2024-03-06T15:22:54;41.58;;;27.98;;
21258;SDS011;10787;53.364;-1.480;2024-03-06T15:25:39;43.88;;;27.50;;
21258;SDS011;10787;53.364;-1.480;2024-03-06T15:28:23;35.63;;;23.90;;
21258;SDS011;10787;53.364;-1.480;2024-03-06T15:31:07;28.42;;;20.27;;
21258;SDS011;10787;53.364;-1.480;2024-03-06T15:33:53;29.00;;;19.35;;
21258;SDS011;10787;53.364;-1.480;2024-03-06T15:36:37;31.83;;;20.95;;
21258;SDS011;10787;53.364;-1.480;2024-03-06T15:39:21;35.13;;;23.02;;
21258;SDS011;10787;53.364;-1.480;2024-03-06T15:42:06;31.65;;;20.33;;
21258;SDS011;10787;53.364;-1.480;2024-03-06T15:44:51;29.98;;;20.67;;
21258;SDS011;10787;53.364;-1.480;2024-03-06T15:47:36;31.02;;;19.98;;
21258;SDS011;10787;53.364;-1.480;2024-03-06T15:50:21;40.80;;;25.42;;
21258;SDS011;10787;53.364;-1.480;2024-03-06T15:53:06;49.33;;;28.08;;
21258;SDS011;10787;53.364;-1.480;2024-03-06T15:55:51;32.42;;;20.20;;